Time;durP1;ratioP1;P1;durP2;ratioP2;P2;SDS_P1;SDS_P2;PMS_P1;PMS_P2;Temp;Humidity;BMP_temperature;BMP_pressure;BME280_temperature;BME280_humidity;BME280_pressure;Samples;Min_cycle;Max_cycle;Signal;HPM_P1;HPM_P2
2022/10/01 00:01:14;;;;;;;;;;;;;;;6.99;78.65;97727.31;4988704;28;19955;-85
2022/10/01 00:03:43;;;;;;;;;;;;;;;6.88;78.85;97720.47;5013593;28;19961;-86
2022/10/01 00:06:11;;;;;;;;;;;;;;;6.95;78.80;97726.28;5007251;28;19976;-86
2022/10/01 00:08:40;;;;;;;;;;;;;;;6.91;78.56;97727.16;4991408;28;19979;-86
2022/10/01 00:11:10;;;;;;;;;;;;;;;6.92;78.76;97734.97;4997536;28;20457;-85
2022/10/01 00:13:40;;;;;;;;;;;;;;;6.93;78.74;97727.69;4982821;28;19929;-86
2022/10/01 00:16:12;;;;;;;;;;;;;;;6.83;78.51;97724.03;5012690;28;19926;-86
2022/10/01 00:18:41;;;;;;;;;;;;;;;6.82;78.25;97725.13;4993578;28;20016;-86
2022/10/01 00:21:12;;;;;;;;;;;;;;;6.81;79.07;97723.50;4982882;28;19926;-85
2022/10/01 00:23:41;;;;;;;;;;;;;;;6.78;78.99;97729.50;4989713;28;19926;-86
2022/10/01 00:26:11;;;;;;;;;;;;;;;6.85;79.08;97734.53;4985865;28;19933;-86
2022/10/01 00:28:41;;;;;;;;;;;;;;;6.94;78.77;97734.69;4971226;28;19932;-85
2022/10/01 00:31:13;;;;;;;;;;;;;;;6.85;78.95;97731.84;4958944;28;20400;-86
2022/10/01 00:34:06;;;;;;;;;;;;;;;6.86;78.58;97727.22;4984899;28;19929;-86
2022/10/01 00:36:35;;;;;;;;;;;;;;;6.85;78.53;97733.72;4997461;28;19973;-87
2022/10/01 00:39:04;;;;;;;;;;;;;;;6.78;78.42;97732.19;4963776;28;20021;-86
2022/10/01 00:41:33;;;;;;;;;;;;;;;6.70;78.68;97735.53;4964281;28;20396;-87
2022/10/01 00:44:16;;;;;;;;;;;;;;;6.77;78.56;97719.81;4978256;28;19926;-86
2022/10/01 00:46:45;;;;;;;;;;;;;;;6.73;78.65;97721.47;4968059;28;20016;-87
2022/10/01 00:49:14;;;;;;;;;;;;;;;6.67;78.94;97713.75;4982658;28;19932;-87
2022/10/01 00:51:47;;;;;;;;;;;;;;;6.64;78.88;97723.19;4997241;28;19926;-86
2022/10/01 00:54:17;;;;;;;;;;;;;;;6.67;78.73;97721.84;4957591;28;19968;-87
2022/10/01 00:56:45;;;;;;;;;;;;;;;6.61;79.07;97723.81;4970007;28;19930;-87
2022/10/01 00:59:15;;;;;;;;;;;;;;;6.68;78.75;97716.13;5009132;28;19949;-86
2022/10/01 01:01:43;;;;;;;;;;;;;;;6.66;79.09;97726.44;4981068;28;19993;-87
2022/10/01 01:04:16;;;;;;;;;;;;;;;6.58;79.20;97724.38;5012034;28;19926;-87
2022/10/01 01:07:09;;;;;;;;;;;;;;;6.66;78.85;97726.44;4958837;28;19926;-87
2022/10/01 01:09:40;;;;;;;;;;;;;;;6.63;79.05;97718.91;4961835;28;19926;-87
2022/10/01 01:15:08;;;;;;;;;;;;;;;6.61;78.84;97710.31;4956492;28;19929;-86
2022/10/01 01:17:39;;;;;;;;;;;;;;;6.59;78.99;97700.88;4973764;28;19925;-87
2022/10/01 01:20:15;;;;;;;;;;;;;;;6.63;79.10;97708.09;4960974;28;19960;-87
2022/10/01 01:22:43;;;;;;;;;;;;;;;6.63;78.83;97700.00;4963861;28;19926;-87
2022/10/01 01:25:13;;;;;;;;;;;;;;;6.62;78.87;97708.41;4964468;28;19941;-87
2022/10/01 01:27:41;;;;;;;;;;;;;;;6.64;79.16;97698.91;4969168;28;19929;-87
2022/10/01 01:30:13;;;;;;;;;;;;;;;6.52;78.80;97691.25;4980376;28;19925;-86
2022/10/01 01:32:44;;;;;;;;;;;;;;;6.54;79.11;97691.75;4977494;28;20004;-87
2022/10/01 01:35:16;;;;;;;;;;;;;;;6.49;78.88;97691.81;4971378;28;20048;-86
2022/10/01 01:37:45;;;;;;;;;;;;;;;6.51;79.03;97691.53;4975253;28;20380;-87
2022/10/01 01:40:14;;;;;;;;;;;;;;;6.52;79.11;97682.34;5019963;28;19965;-86
2022/10/01 01:42:43;;;;;;;;;;;;;;;6.58;79.12;97697.38;4975154;28;19930;-86
2022/10/01 01:45:14;;;;;;;;;;;;;;;6.60;78.80;97697.88;4979910;28;19925;-86
2022/10/01 01:47:42;;;;;;;;;;;;;;;6.54;79.17;97690.94;4992741;28;19926;-86
2022/10/01 01:50:22;;;;;;;;;;;;;;;6.50;79.20;97687.25;4994568;28;20028;-86
2022/10/01 01:52:58;;;;;;;;;;;;;;;6.44;79.58;97677.59;4994857;28;19925;-86
2022/10/01 02:01:27;;;;;;;;;;;;;;;6.37;80.04;97675.25;4980498;28;19926;-86
2022/10/01 02:03:57;;;;;;;;;;;;;;;6.40;79.95;97676.56;4967895;28;19930;-86
2022/10/01 02:06:27;;;;;;;;;;;;;;;6.45;79.80;97681.91;4991412;28;19932;-87
2022/10/01 02:09:00;;;;;;;;;;;;;;;6.37;80.18;97674.44;4962480;28;19973;-86
2022/10/01 02:11:29;;;;;;;;;;;;;;;6.45;79.87;97668.41;4959873;28;19926;-86
2022/10/01 02:14:06;;;;;;;;;;;;;;;6.42;79.91;97666.28;4976552;28;19950;-84
2022/10/01 02:16:35;;;;;;;;;;;;;;;6.38;80.16;97666.06;4986979;28;19977;-86
2022/10/01 02:19:05;;;;;;;;;;;;;;;6.45;79.83;97668.41;4958315;28;19980;-86
2022/10/01 02:21:35;;;;;;;;;;;;;;;6.49;79.88;97667.53;4959943;28;19926;-86
2022/10/01 02:24:07;;;;;;;;;;;;;;;6.42;80.34;97674.38;4986026;28;19926;-86
2022/10/01 02:26:37;;;;;;;;;;;;;;;6.48;80.20;97665.13;4992954;28;19926;-86
2022/10/01 02:29:10;;;;;;;;;;;;;;;6.55;79.76;97670.94;4979763;28;20303;-87
2022/10/01 02:31:38;;;;;;;;;;;;;;;6.55;79.69;97663.69;4994792;28;19926;-86
2022/10/01 02:34:07;;;;;;;;;;;;;;;6.57;80.03;97664.19;4963695;28;19929;-85
2022/10/01 02:36:41;;;;;;;;;;;;;;;6.54;79.77;97661.25;4970712;28;19933;-85
2022/10/01 02:39:10;;;;;;;;;;;;;;;6.52;80.10;97653.47;4973357;28;19926;-86
2022/10/01 02:41:40;;;;;;;;;;;;;;;6.53;79.84;97652.34;4988648;28;19926;-86
2022/10/01 02:44:09;;;;;;;;;;;;;;;6.51;80.11;97657.25;4982471;28;19956;-86
2022/10/01 02:46:38;;;;;;;;;;;;;;;6.49;80.30;97650.53;4995193;28;19966;-86
2022/10/01 02:49:08;;;;;;;;;;;;;;;6.42;80.60;97652.78;4957894;28;20008;-86
2022/10/01 02:51:48;;;;;;;;;;;;;;;6.44;80.30;97646.00;4982771;28;19958;-86
2022/10/01 02:54:17;;;;;;;;;;;;;;;6.46;80.42;97651.13;4961800;28;20139;-85
2022/10/01 02:59:36;;;;;;;;;;;;;;;6.50;80.23;97652.16;5006448;28;19926;-83
2022/10/01 03:02:09;;;;;;;;;;;;;;;6.48;80.60;97651.63;4984043;28;19926;-85
2022/10/01 03:04:38;;;;;;;;;;;;;;;6.54;80.03;97655.84;4985711;28;19925;-85
2022/10/01 03:07:06;;;;;;;;;;;;;;;6.56;80.12;97642.91;4986476;28;20075;-85
2022/10/01 03:09:36;;;;;;;;;;;;;;;6.63;80.18;97643.31;4991909;28;19929;-84
2022/10/01 03:12:07;;;;;;;;;;;;;;;6.66;79.88;97641.91;4995835;28;20028;-85
2022/10/01 03:14:35;;;;;;;;;;;;;;;6.67;79.74;97649.75;4983392;28;19999;-85
2022/10/01 03:17:03;;;;;;;;;;;;;;;6.64;80.03;97638.72;4996065;28;19926;-85
2022/10/01 03:19:31;;;;;;;;;;;;;;;6.70;79.40;97638.34;5005444;28;19973;-87
2022/10/01 03:22:00;;;;;;;;;;;;;;;6.73;79.59;97636.97;5016208;28;19930;-86
2022/10/01 03:24:28;;;;;;;;;;;;;;;6.73;79.62;97640.47;4994007;28;19945;-86
2022/10/01 03:26:59;;;;;;;;;;;;;;;6.67;79.93;97643.56;4981293;28;19933;-86
2022/10/01 03:29:27;;;;;;;;;;;;;;;6.72;79.49;97636.19;4970092;28;20017;-85
2022/10/01 03:31:55;;;;;;;;;;;;;;;6.66;79.86;97637.34;4976261;28;19974;-86
2022/10/01 03:34:24;;;;;;;;;;;;;;;6.65;79.97;97630.31;4975476;28;19926;-85
2022/10/01 03:36:52;;;;;;;;;;;;;;;6.69;79.92;97633.25;4975490;28;19926;-86
2022/10/01 03:39:23;;;;;;;;;;;;;;;6.71;80.29;97631.03;4975304;28;20364;-86
2022/10/01 03:41:52;;;;;;;;;;;;;;;6.70;80.43;97624.06;4968769;28;19926;-86
2022/10/01 03:44:21;;;;;;;;;;;;;;;6.72;80.31;97622.69;4984832;28;19982;-86
2022/10/01 03:46:48;;;;;;;;;;;;;;;6.75;80.06;97624.78;4963389;28;20453;-86
2022/10/01 03:49:19;;;;;;;;;;;;;;;6.79;80.48;97623.09;4954192;28;19926;-85
2022/10/01 03:51:48;;;;;;;;;;;;;;;6.83;80.53;97620.63;4975935;28;19926;-85
2022/10/01 03:54:19;;;;;;;;;;;;;;;6.79;80.59;97625.00;4961006;28;19932;-86
2022/10/01 03:56:49;;;;;;;;;;;;;;;6.84;80.60;97622.22;4969093;28;19929;-85
2022/10/01 03:59:18;;;;;;;;;;;;;;;6.87;80.53;97620.81;4975430;28;20397;-84
2022/10/01 04:01:46;;;;;;;;;;;;;;;6.90;80.67;97614.84;4949730;28;19930;-84
2022/10/01 04:04:14;;;;;;;;;;;;;;;6.94;80.47;97605.06;4940068;28;19988;-85
2022/10/01 04:06:47;;;;;;;;;;;;;;;6.93;80.90;97612.38;4943992;28;20399;-85
2022/10/01 04:09:16;;;;;;;;;;;;;;;6.98;80.67;97614.19;4986185;28;19934;-83
2022/10/01 04:11:44;;;;;;;;;;;;;;;6.94;80.84;97608.56;4978756;28;20041;-85
2022/10/01 04:14:14;;;;;;;;;;;;;;;7.00;80.70;97601.97;4959903;28;19961;-85
2022/10/01 04:16:45;;;;;;;;;;;;;;;6.98;81.34;97600.69;4941537;28;19981;-85
2022/10/01 04:19:13;;;;;;;;;;;;;;;6.98;81.63;97593.38;4943148;28;19982;-85
2022/10/01 04:21:41;;;;;;;;;;;;;;;7.05;81.12;97587.59;4969322;28;19930;-86
2022/10/01 04:24:09;;;;;;;;;;;;;;;7.10;81.11;97592.91;4954615;28;19926;-86
2022/10/01 04:26:39;;;;;;;;;;;;;;;7.11;81.32;97591.00;4961295;28;19928;-85
2022/10/01 04:29:11;;;;;;;;;;;;;;;7.14;81.25;97590.41;4973092;28;19926;-86
2022/10/01 04:31:41;;;;;;;;;;;;;;;7.14;81.07;97588.53;4958170;28;19926;-85
2022/10/01 04:34:10;;;;;;;;;;;;;;;7.12;81.59;97593.41;4940507;28;19926;-84
2022/10/01 04:36:41;;;;;;;;;;;;;;;7.15;81.48;97594.72;4947675;28;20388;-84
2022/10/01 04:39:14;;;;;;;;;;;;;;;7.17;81.41;97590.63;4971152;28;20491;-85
2022/10/01 04:41:42;;;;;;;;;;;;;;;7.16;81.73;97599.81;4956173;28;19941;-84
2022/10/01 04:44:10;;;;;;;;;;;;;;;7.22;81.59;97593.22;4974523;28;19973;-85
2022/10/01 04:46:41;;;;;;;;;;;;;;;7.22;81.82;97589.72;4961626;28;19926;-85
2022/10/01 04:49:15;;;;;;;;;;;;;;;7.21;82.06;97586.22;4974906;28;19933;-85
2022/10/01 04:51:48;;;;;;;;;;;;;;;7.19;82.19;97585.72;4937897;28;20369;-86
2022/10/01 04:54:18;;;;;;;;;;;;;;;7.24;81.98;97588.31;4963893;28;19926;-84
2022/10/01 04:56:47;;;;;;;;;;;;;;;7.29;81.94;97590.94;4957973;28;20040;-85
2022/10/01 04:59:16;;;;;;;;;;;;;;;7.29;81.87;97593.63;4951100;28;19969;-84
2022/10/01 05:01:45;;;;;;;;;;;;;;;7.30;82.06;97589.84;4952993;28;20317;-85
2022/10/01 05:04:13;;;;;;;;;;;;;;;7.30;82.00;97602.56;4957289;28;19949;-85
2022/10/01 05:06:45;;;;;;;;;;;;;;;7.28;82.30;97600.13;4950087;28;19989;-84
2022/10/01 05:09:13;;;;;;;;;;;;;;;7.30;82.29;97600.66;4956719;28;20400;-84
2022/10/01 05:11:41;;;;;;;;;;;;;;;7.24;82.51;97598.31;4956042;28;20013;-85
2022/10/01 05:14:14;;;;;;;;;;;;;;;7.27;82.56;97598.53;4948330;28;19961;-88
2022/10/01 05:16:42;;;;;;;;;;;;;;;7.33;82.32;97605.47;4957960;28;20001;-85
2022/10/01 05:19:12;;;;;;;;;;;;;;;7.33;82.38;97602.75;4934594;28;19934;-85
2022/10/01 05:21:40;;;;;;;;;;;;;;;7.36;82.28;97604.06;4964698;28;20261;-86
2022/10/01 05:24:08;;;;;;;;;;;;;;;7.38;82.46;97601.06;4950064;28;20805;-87
2022/10/01 05:26:38;;;;;;;;;;;;;;;7.39;82.61;97600.75;4961339;28;19934;-87
2022/10/01 05:29:09;;;;;;;;;;;;;;;7.42;82.42;97600.19;4979585;28;20392;-87
2022/10/01 05:31:40;;;;;;;;;;;;;;;7.42;82.47;97604.78;4987204;28;20345;-87
2022/10/01 05:34:08;;;;;;;;;;;;;;;7.44;82.44;97602.56;4972772;28;19932;-87
2022/10/01 05:36:41;;;;;;;;;;;;;;;7.43;82.67;97601.78;4992362;28;19973;-87
2022/10/01 05:39:10;;;;;;;;;;;;;;;7.45;82.52;97604.19;4994946;28;19934;-87
2022/10/01 05:41:39;;;;;;;;;;;;;;;7.47;82.67;97607.41;5002666;28;19930;-88
2022/10/01 05:44:07;;;;;;;;;;;;;;;7.47;82.71;97602.78;4992363;28;20413;-89
2022/10/01 05:46:35;;;;;;;;;;;;;;;7.52;82.60;97604.59;4978638;28;19926;-87
2022/10/01 05:49:06;;;;;;;;;;;;;;;7.57;82.51;97602.59;4993070;28;19925;-87
2022/10/01 05:51:35;;;;;;;;;;;;;;;7.59;82.51;97599.59;4959361;28;19953;-89
2022/10/01 05:54:33;;;;;;;;;;;;;;;7.55;82.54;97604.78;4971130;28;20002;-81
2022/10/01 05:57:01;;;;;;;;;;;;;;;7.59;82.92;97597.69;4953720;28;20029;-80
2022/10/01 06:02:21;;;;;;;;;;;;;;;7.71;82.40;97594.47;4970647;28;19926;-84
2022/10/01 06:04:49;;;;;;;;;;;;;;;7.65;82.60;97582.16;4975399;28;20311;-90
2022/10/01 06:07:17;;;;;;;;;;;;;;;7.76;82.45;97591.69;4990390;28;19933;-83
2022/10/01 06:09:46;;;;;;;;;;;;;;;7.78;82.33;97589.50;4973728;28;19944;-88
2022/10/01 06:15:08;;;;;;;;;;;;;;;7.94;82.33;97586.50;4976668;28;19930;-84
2022/10/01 06:17:42;;;;;;;;;;;;;;;7.88;82.41;97578.47;4945780;28;20364;-85
2022/10/01 06:20:12;;;;;;;;;;;;;;;7.97;82.63;97580.47;4974119;28;20388;-84
2022/10/01 06:22:41;;;;;;;;;;;;;;;8.04;82.63;97578.97;4948549;28;20376;-84
2022/10/01 06:25:11;;;;;;;;;;;;;;;8.09;82.54;97570.72;4986969;28;19939;-82
2022/10/01 06:27:39;;;;;;;;;;;;;;;8.15;82.30;97568.72;4954540;28;20395;-85
2022/10/01 06:30:08;;;;;;;;;;;;;;;8.14;82.32;97570.59;5003617;28;19926;-82
2022/10/01 06:32:36;;;;;;;;;;;;;;;8.14;82.31;97562.50;4968555;28;20016;-85
2022/10/01 06:35:06;;;;;;;;;;;;;;;8.20;82.19;97565.88;4968534;28;19976;-88
2022/10/01 06:37:36;;;;;;;;;;;;;;;8.23;82.01;97564.50;4988577;28;19938;-83
2022/10/01 06:40:06;;;;;;;;;;;;;;;8.27;82.12;97554.66;4984967;28;19979;-82
2022/10/01 06:42:35;;;;;;;;;;;;;;;8.28;82.04;97557.06;4988573;28;19937;-83
2022/10/01 06:45:03;;;;;;;;;;;;;;;8.26;82.01;97556.56;4981056;28;20396;-74
2022/10/01 06:47:34;;;;;;;;;;;;;;;8.32;81.93;97568.88;4982182;28;19963;-75
2022/10/01 06:50:06;;;;;;;;;;;;;;;8.37;81.73;97563.38;4969324;28;19981;-80
2022/10/01 06:52:49;;;;;;;;;;;;;;;8.38;81.73;97567.69;4997970;28;19925;-81
2022/10/01 06:55:17;;;;;;;;;;;;;;;8.45;81.63;97566.47;4996351;28;20288;-82
2022/10/01 06:58:12;;;;;;;;;;;;;;;8.49;81.24;97556.63;4981805;28;20005;-83
2022/10/01 07:00:41;;;;;;;;;;;;;;;8.55;81.30;97548.06;4983686;28;19948;-83
2022/10/01 07:03:10;;;;;;;;;;;;;;;8.53;81.35;97557.63;4980205;28;19926;-84
2022/10/01 07:05:39;;;;;;;;;;;;;;;8.56;80.97;97557.00;4982461;28;19937;-86
2022/10/01 07:08:07;;;;;;;;;;;;;;;8.56;80.60;97551.59;5001376;28;20044;-83
2022/10/01 07:10:38;;;;;;;;;;;;;;;8.54;81.08;97548.41;4968462;28;19969;-86
2022/10/01 07:13:07;;;;;;;;;;;;;;;8.61;81.30;97554.97;5001376;28;19926;-81
2022/10/01 07:15:37;;;;;;;;;;;;;;;8.63;81.03;97551.97;5004758;28;19948;-89
2022/10/01 07:18:05;;;;;;;;;;;;;;;8.64;80.94;97554.38;4983772;28;19925;-87
2022/10/01 07:20:38;;;;;;;;;;;;;;;8.63;80.73;97562.81;4967426;28;19926;-84
2022/10/01 07:23:07;;;;;;;;;;;;;;;8.65;80.77;97555.97;4981331;28;19930;-79
2022/10/01 07:25:35;;;;;;;;;;;;;;;8.73;80.71;97554.41;4987856;28;20009;-78
2022/10/01 07:28:04;;;;;;;;;;;;;;;8.80;80.86;97567.56;4983106;28;19930;-81
2022/10/01 07:33:27;;;;;;;;;;;;;;;8.77;80.25;97558.13;4957015;28;19926;-82
2022/10/01 07:36:20;;;;;;;;;;;;;;;8.73;80.54;97562.53;4949324;28;19938;-83
2022/10/01 07:38:49;;;;;;;;;;;;;;;8.76;80.32;97566.56;4963893;28;20381;-83
2022/10/01 07:41:17;;;;;;;;;;;;;;;8.75;80.35;97565.75;4976751;28;20340;-80
2022/10/01 07:43:46;;;;;;;;;;;;;;;8.72;80.73;97560.16;4966800;28;19930;-76
2022/10/01 07:46:14;;;;;;;;;;;;;;;8.81;80.57;97556.41;4966985;28;20045;-76
2022/10/01 07:48:47;;;;;;;;;;;;;;;8.86;80.41;97556.28;4986567;28;19932;-77
2022/10/01 07:51:16;;;;;;;;;;;;;;;8.87;80.55;97566.00;4990343;28;20123;-77
2022/10/01 07:53:45;;;;;;;;;;;;;;;8.89;80.76;97552.97;4995511;28;19925;-77
2022/10/01 07:56:13;;;;;;;;;;;;;;;8.93;80.10;97566.66;4993360;28;19925;-77
2022/10/01 07:58:42;;;;;;;;;;;;;;;8.96;80.33;97565.28;4993469;28;19985;-78
2022/10/01 08:01:10;;;;;;;;;;;;;;;8.89;80.35;97549.44;4998943;28;19952;-78
2022/10/01 08:03:38;;;;;;;;;;;;;;;8.99;80.83;97564.63;5006794;28;19926;-77
2022/10/01 08:06:08;;;;;;;;;;;;;;;9.00;80.95;97568.94;4988404;28;19926;-77
2022/10/01 08:08:36;;;;;;;;;;;;;;;9.01;81.26;97568.66;4991586;28;19974;-76
2022/10/01 08:11:05;;;;;;;;;;;;;;;9.03;81.56;97571.84;5006184;28;20360;-77
2022/10/01 08:13:33;;;;;;;;;;;;;;;8.92;82.08;97573.19;5006607;28;19932;-76
2022/10/01 08:16:02;;;;;;;;;;;;;;;8.95;82.24;97569.06;4989171;28;20036;-77
2022/10/01 08:18:31;;;;;;;;;;;;;;;8.93;82.47;97572.09;4994948;28;19937;-77
2022/10/01 08:21:00;;;;;;;;;;;;;;;8.93;82.92;97570.19;4990863;28;19926;-76
2022/10/01 08:23:31;;;;;;;;;;;;;;;8.90;83.55;97572.72;4975347;28;19929;-77
2022/10/01 08:26:01;;;;;;;;;;;;;;;8.90;83.98;97573.53;5006709;28;19926;-78
2022/10/01 08:28:29;;;;;;;;;;;;;;;8.96;84.20;97574.19;4974794;28;19925;-77
2022/10/01 08:30:58;;;;;;;;;;;;;;;8.90;85.17;97572.72;4993686;28;19930;-77
2022/10/01 08:33:26;;;;;;;;;;;;;;;8.93;85.19;97572.09;5003243;28;20767;-82
2022/10/01 08:36:19;;;;;;;;;;;;;;;8.95;85.84;97572.59;5002854;28;19934;-81
2022/10/01 08:38:51;;;;;;;;;;;;;;;8.90;85.93;97556.47;5004403;28;20029;-80
2022/10/01 08:41:23;;;;;;;;;;;;;;;8.98;86.20;97563.03;4991843;28;19933;-79
2022/10/01 08:43:52;;;;;;;;;;;;;;;8.95;86.77;97558.22;5004904;28;19936;-80
2022/10/01 08:46:20;;;;;;;;;;;;;;;8.96;87.11;97560.66;5006691;28;19988;-80
2022/10/01 08:48:52;;;;;;;;;;;;;;;8.95;87.04;97552.81;4993995;28;19944;-83
2022/10/01 08:51:26;;;;;;;;;;;;;;;8.87;86.83;97551.66;5007233;28;19929;-84
2022/10/01 08:53:56;;;;;;;;;;;;;;;8.95;87.42;97547.38;5006700;28;19935;-83
2022/10/01 08:56:25;;;;;;;;;;;;;;;8.89;87.90;97542.13;5003839;28;19925;-81
2022/10/01 08:58:56;;;;;;;;;;;;;;;8.90;88.48;97551.84;5005635;28;19925;-82
2022/10/01 09:01:25;;;;;;;;;;;;;;;8.86;88.15;97539.22;4961374;28;20287;-83
2022/10/01 09:03:53;;;;;;;;;;;;;;;8.91;88.55;97539.91;4988175;28;19925;-76
2022/10/01 09:06:21;;;;;;;;;;;;;;;8.92;88.84;97538.78;4993746;28;20376;-76
2022/10/01 09:09:01;;;;;;;;;;;;;;;8.91;88.86;97539.09;5008326;28;19944;-84
2022/10/01 09:11:32;;;;;;;;;;;;;;;8.84;88.59;97536.84;4991232;28;19926;-76
2022/10/01 09:14:11;;;;;;;;;;;;;;;8.91;89.25;97529.06;5006607;28;19944;-80
2022/10/01 09:16:45;;;;;;;;;;;;;;;8.96;89.35;97524.63;4992471;28;19936;-81
2022/10/01 09:19:18;;;;;;;;;;;;;;;9.00;89.36;97517.47;4989865;28;19930;-81
2022/10/01 09:21:49;;;;;;;;;;;;;;;9.01;89.64;97514.47;4988515;28;19988;-81
2022/10/01 09:24:24;;;;;;;;;;;;;;;9.00;89.66;97509.31;4984558;28;20434;-83
2022/10/01 09:26:52;;;;;;;;;;;;;;;9.04;89.98;97499.47;4982485;28;19972;-81
2022/10/01 09:29:23;;;;;;;;;;;;;;;8.98;89.25;97498.00;4985504;28;19934;-82
2022/10/01 09:34:54;;;;;;;;;;;;;;;9.06;90.23;97495.34;4975070;28;19965;-81
2022/10/01 09:37:26;;;;;;;;;;;;;;;9.07;90.00;97486.13;4961860;28;19938;-82
2022/10/01 09:40:00;;;;;;;;;;;;;;;9.13;90.42;97489.47;4982137;28;21159;-81
2022/10/01 09:42:28;;;;;;;;;;;;;;;9.13;90.33;97489.47;4963104;28;20407;-81
2022/10/01 09:44:57;;;;;;;;;;;;;;;9.09;89.88;97483.09;4966888;28;19926;-81
2022/10/01 09:47:50;;;;;;;;;;;;;;;9.14;90.16;97472.09;4947718;28;20456;-81
2022/10/01 09:50:20;;;;;;;;;;;;;;;9.17;90.43;97469.59;4972230;28;19925;-82
2022/10/01 09:53:13;;;;;;;;;;;;;;;9.19;90.19;97467.34;4978648;28;19987;-81
2022/10/01 09:55:44;;;;;;;;;;;;;;;9.23;90.20;97464.81;4950635;28;20621;-81
2022/10/01 09:58:13;;;;;;;;;;;;;;;9.20;90.38;97457.31;4977437;28;20103;-81
2022/10/01 10:00:43;;;;;;;;;;;;;;;9.19;90.45;97458.41;4967972;28;19978;-82
2022/10/01 10:03:21;;;;;;;;;;;;;;;9.25;90.43;97465.28;4964307;28;20376;-82
2022/10/01 10:05:50;;;;;;;;;;;;;;;9.28;90.22;97466.59;4965870;28;19926;-82
2022/10/01 10:08:21;;;;;;;;;;;;;;;9.14;88.82;97443.09;4967311;28;19933;-81
2022/10/01 10:10:57;;;;;;;;;;;;;;;9.23;89.83;97448.56;4978880;28;19927;-81
2022/10/01 10:13:25;;;;;;;;;;;;;;;9.29;90.00;97450.00;4982086;28;19993;-80
2022/10/01 10:15:59;;;;;;;;;;;;;;;9.26;89.62;97456.03;4969798;28;19938;-76
2022/10/01 10:18:28;;;;;;;;;;;;;;;9.18;88.62;97454.91;4995743;28;20002;-79
2022/10/01 10:20:56;;;;;;;;;;;;;;;9.25;89.38;97443.63;4990550;28;19947;-81
2022/10/01 10:23:25;;;;;;;;;;;;;;;9.25;89.38;97446.31;4979883;28;19957;-81
2022/10/01 10:25:59;;;;;;;;;;;;;;;9.32;89.39;97441.25;4989585;28;19929;-80
2022/10/01 10:28:28;;;;;;;;;;;;;;;9.35;89.71;97447.97;4980755;28;20007;-80
2022/10/01 10:30:56;;;;;;;;;;;;;;;9.36;89.83;97449.53;4965170;28;20650;-79
2022/10/01 10:33:28;;;;;;;;;;;;;;;9.39;88.88;97449.72;4967439;28;20395;-80
2022/10/01 10:36:21;;;;;;;;;;;;;;;9.42;89.16;97448.28;4972253;28;19965;-80
2022/10/01 10:38:51;;;;;;;;;;;;;;;9.44;89.08;97455.00;4966387;28;19925;-79
2022/10/01 10:41:25;;;;;;;;;;;;;;;9.40;88.41;97442.38;4989582;28;19926;-80
2022/10/01 10:43:57;;;;;;;;;;;;;;;9.49;88.32;97450.56;4986824;28;19932;-80
2022/10/01 10:46:30;;;;;;;;;;;;;;;9.54;88.62;97445.78;4989409;28;19990;-78
2022/10/01 10:49:09;;;;;;;;;;;;;;;9.56;88.19;97443.53;4974413;28;19927;-81
2022/10/01 10:55:00;;;;;;;;;;;;;;;9.62;87.08;97442.28;4972284;28;19926;-80
2022/10/01 10:57:35;;;;;;;;;;;;;;;9.67;88.00;97442.13;4985544;28;19933;-81
2022/10/01 11:00:15;;;;;;;;;;;;;;;9.73;88.37;97444.69;4960146;28;20376;-80
2022/10/01 11:02:51;;;;;;;;;;;;;;;9.69;87.20;97439.09;4973581;28;19988;-80
2022/10/01 11:05:20;;;;;;;;;;;;;;;9.65;87.04;97443.56;4949318;28;20452;-80
2022/10/01 11:08:14;;;;;;;;;;;;;;;9.67;87.26;97433.19;4988367;28;19961;-80
2022/10/01 11:10:48;;;;;;;;;;;;;;;9.69;87.33;97434.50;4990900;28;19926;-79
2022/10/01 11:13:36;;;;;;;;;;;;;;;9.72;87.78;97430.34;5008563;28;19926;-78
2022/10/01 11:16:13;;;;;;;;;;;;;;;9.75;87.50;97429.72;4950708;28;19976;-79
2022/10/01 11:19:00;;;;;;;;;;;;;;;9.76;87.75;97420.44;4993161;28;19934;-80
2022/10/01 11:21:33;;;;;;;;;;;;;;;9.84;87.86;97416.94;4983197;28;19926;-80
2022/10/01 11:27:05;;;;;;;;;;;;;;;9.75;87.13;97412.59;4989707;28;19925;-80
2022/10/01 11:29:37;;;;;;;;;;;;;;;9.76;87.71;97420.44;4973971;28;20088;-81
2022/10/01 11:32:50;;;;;;;;;;;;;;;9.86;87.97;97425.56;4981563;28;19932;-80
2022/10/01 11:35:46;;;;;;;;;;;;;;;9.90;88.35;97431.94;4956610;28;20464;-80
2022/10/01 11:38:21;;;;;;;;;;;;;;;9.97;88.30;97436.91;4974502;28;20020;-80
2022/10/01 11:40:51;;;;;;;;;;;;;;;10.02;88.59;97435.97;4985370;28;19926;-80
2022/10/01 11:43:24;;;;;;;;;;;;;;;10.02;88.00;97433.25;4975597;28;20016;-81
2022/10/01 11:45:56;;;;;;;;;;;;;;;10.14;87.93;97441.53;4971947;28;20005;-79
2022/10/01 11:48:38;;;;;;;;;;;;;;;10.09;87.17;97431.63;4971788;28;19926;-80
2022/10/01 11:51:22;;;;;;;;;;;;;;;10.20;86.05;97432.13;4966359;28;19934;-81
2022/10/01 11:54:05;;;;;;;;;;;;;;;10.28;87.08;97428.63;4955645;28;19930;-81
2022/10/01 11:59:45;;;;;;;;;;;;;;;10.28;87.16;97436.78;4982528;28;20281;-82
2022/10/01 12:02:32;;;;;;;;;;;;;;;10.30;86.56;97434.53;4963810;28;19934;-80
2022/10/01 12:05:03;;;;;;;;;;;;;;;10.31;86.50;97438.84;4973701;28;19936;-81
2022/10/01 12:08:17;;;;;;;;;;;;;;;10.35;86.44;97436.28;4982075;28;20372;-81
2022/10/01 12:10:48;;;;;;;;;;;;;;;10.31;85.77;97430.69;4963412;28;19984;-80
2022/10/01 12:13:39;;;;;;;;;;;;;;;10.40;86.10;97428.78;5001214;28;19930;-81
2022/10/01 12:16:09;;;;;;;;;;;;;;;10.40;85.97;97436.91;4969365;28;20277;-82
2022/10/01 12:18:41;;;;;;;;;;;;;;;10.37;85.42;97439.47;4987696;28;19932;-81
2022/10/01 12:21:38;;;;;;;;;;;;;;;10.47;85.62;97433.72;4984415;28;19932;-77
2022/10/01 12:24:19;;;;;;;;;;;;;;;10.48;86.22;97424.44;5004067;28;19925;-78
2022/10/01 12:26:52;;;;;;;;;;;;;;;10.48;85.64;97433.38;4975068;28;19932;-82
2022/10/01 12:29:45;;;;;;;;;;;;;;;10.54;85.77;97438.66;4968403;28;19933;-81
2022/10/01 12:32:59;;;;;;;;;;;;;;;10.62;85.39;97426.97;4980764;28;19933;-80
2022/10/01 12:36:13;;;;;;;;;;;;;;;10.74;84.45;97425.19;4966483;28;19950;-80
2022/10/01 12:39:13;;;;;;;;;;;;;;;10.78;84.37;97432.69;4975456;28;20356;-80
2022/10/01 12:45:23;;;;;;;;;;;;;;;10.90;84.11;97428.16;4954550;28;19926;-80
2022/10/01 12:48:15;;;;;;;;;;;;;;;10.93;83.88;97435.69;4964823;28;19957;-80
2022/10/01 12:51:09;;;;;;;;;;;;;;;10.97;83.48;97428.47;4955303;28;19937;-79
2022/10/01 12:53:59;;;;;;;;;;;;;;;10.97;83.75;97430.38;4953046;28;19934;-76
2022/10/01 12:56:48;;;;;;;;;;;;;;;10.96;84.12;97435.03;4944665;28;20026;-77
2022/10/01 12:59:42;;;;;;;;;;;;;;;10.99;84.31;97428.94;4957237;28;19974;-76
2022/10/01 13:02:38;;;;;;;;;;;;;;;11.04;84.71;97435.34;4964583;28;19990;-76
2022/10/01 13:05:28;;;;;;;;;;;;;;;11.07;84.09;97435.47;4964694;28;19942;-76
2022/10/01 13:08:25;;;;;;;;;;;;;;;11.18;82.90;97439.41;4955402;28;19965;-77
2022/10/01 13:11:19;;;;;;;;;;;;;;;11.10;83.37;97439.47;4961819;28;19933;-82
2022/10/01 13:13:50;;;;;;;;;;;;;;;11.10;83.20;97442.19;4958774;28;20284;-82
2022/10/01 13:16:21;;;;;;;;;;;;;;;11.14;83.39;97448.56;4969529;28;20025;-82
2022/10/01 13:18:53;;;;;;;;;;;;;;;11.22;82.91;97451.22;4961334;28;19930;-81
2022/10/01 13:21:25;;;;;;;;;;;;;;;11.26;82.89;97449.47;4971760;28;19984;-78
2022/10/01 13:23:55;;;;;;;;;;;;;;;11.34;82.15;97455.19;4968925;28;19933;-82
2022/10/01 13:26:26;;;;;;;;;;;;;;;11.31;82.84;97458.56;4966971;28;19930;-79
2022/10/01 13:28:58;;;;;;;;;;;;;;;11.37;83.06;97452.63;4957754;28;19981;-77
2022/10/01 13:31:37;;;;;;;;;;;;;;;11.42;83.02;97457.06;4970747;28;19954;-80
2022/10/01 13:34:23;;;;;;;;;;;;;;;11.50;82.33;97454.31;4941782;28;19948;-79
2022/10/01 13:36:51;;;;;;;;;;;;;;;11.62;81.34;97455.53;4966413;28;19927;-82
2022/10/01 13:39:23;;;;;;;;;;;;;;;11.40;82.84;97451.16;4966600;28;19926;-85
2022/10/01 13:41:53;;;;;;;;;;;;;;;11.44;82.71;97458.31;4967567;28;20021;-82
2022/10/01 13:44:24;;;;;;;;;;;;;;;11.49;82.28;97460.88;4967078;28;19930;-79
2022/10/01 13:47:20;;;;;;;;;;;;;;;11.39;82.77;97466.66;4969398;28;20448;-81
2022/10/01 13:53:14;;;;;;;;;;;;;;;11.36;83.57;97466.56;4968684;28;19930;-77
2022/10/01 13:55:43;;;;;;;;;;;;;;;11.47;83.34;97476.72;4970275;28;20383;-81
2022/10/01 13:58:22;;;;;;;;;;;;;;;11.40;83.37;97471.00;4968026;28;19925;-76
2022/10/01 14:01:40;;;;;;;;;;;;;;;11.37;83.46;97479.81;4967272;28;19967;-81
2022/10/01 14:04:33;;;;;;;;;;;;;;;11.37;83.84;97477.09;4964838;28;19938;-79
2022/10/01 14:07:24;;;;;;;;;;;;;;;11.40;83.68;97481.88;4968157;28;20344;-79